Time;durP1;ratioP1;P1;durP2;ratioP2;P2;SDS_P1;SDS_P2;PMS_P1;PMS_P2;Temp;Humidity;BMP_temperature;BMP_pressure;BME280_temperature;BME280_humidity;BME280_pressure;Samples;Min_cycle;Max_cycle;Signal;HPM_P1;HPM_P2
2022/12/07 00:02:21;;;;;;;8.90;7.53;;;3.30;99.90;;;;;;5020884;28;21066;-60
2022/12/07 00:04:49;;;;;;;12.23;8.73;;;3.20;99.90;;;;;;5019098;28;20204;-60
2022/12/07 00:07:14;;;;;;;12.30;8.17;;;3.20;99.90;;;;;;5018904;28;20214;-60
2022/12/07 00:09:41;;;;;;;10.63;8.03;;;3.20;99.90;;;;;;5017891;28;20407;-60
2022/12/07 00:12:07;;;;;;;12.87;9.23;;;3.20;99.90;;;;;;5022492;28;20233;-61
2022/12/07 00:14:33;;;;;;;11.10;8.77;;;3.20;99.90;;;;;;5017942;28;20837;-61
2022/12/07 00:16:58;;;;;;;9.27;8.37;;;3.20;99.90;;;;;;5021285;28;20195;-61
2022/12/07 00:19:23;;;;;;;9.30;7.47;;;3.10;99.90;;;;;;5024230;28;20220;-61
2022/12/07 00:21:49;;;;;;;9.30;8.03;;;3.10;99.90;;;;;;5020448;28;20210;-62
2022/12/07 00:24:15;;;;;;;8.47;7.47;;;3.00;99.90;;;;;;5022461;28;20689;-63
2022/12/07 00:26:41;;;;;;;10.97;7.87;;;3.10;99.90;;;;;;5018720;28;20208;-60
2022/12/07 00:29:12;;;;;;;12.03;7.40;;;3.10;99.90;;;;;;5016629;28;20294;-60
2022/12/07 00:31:38;;;;;;;10.23;7.77;;;3.00;99.90;;;;;;5016353;28;20218;-61
2022/12/07 00:34:11;;;;;;;8.53;7.00;;;3.10;99.90;;;;;;5009009;28;20727;-61
2022/12/07 00:36:36;;;;;;;11.23;7.53;;;3.10;99.90;;;;;;5016255;28;20207;-59
2022/12/07 00:39:02;;;;;;;9.83;7.80;;;3.00;99.90;;;;;;5016342;28;20210;-60
2022/12/07 00:41:29;;;;;;;9.03;7.80;;;3.00;99.90;;;;;;5016270;28;20213;-59
2022/12/07 00:43:55;;;;;;;9.07;7.53;;;2.90;99.90;;;;;;5014424;28;20214;-60
2022/12/07 00:46:21;;;;;;;8.90;6.93;;;2.80;99.90;;;;;;5015589;28;20288;-61
2022/12/07 00:48:48;;;;;;;8.57;6.90;;;2.70;99.90;;;;;;5016221;28;20238;-61
2022/12/07 00:51:15;;;;;;;7.83;6.87;;;2.70;99.90;;;;;;5016077;28;20211;-60
2022/12/07 00:53:41;;;;;;;10.67;7.50;;;2.70;99.90;;;;;;5016203;28;20293;-60
2022/12/07 00:56:14;;;;;;;7.93;6.97;;;2.60;99.90;;;;;;5015397;28;20307;-60
2022/12/07 00:58:40;;;;;;;7.70;6.67;;;2.60;99.90;;;;;;5007105;28;20239;-60
2022/12/07 01:01:07;;;;;;;9.27;7.27;;;2.60;99.90;;;;;;5016581;28;20707;-60
2022/12/07 01:03:33;;;;;;;8.50;6.40;;;2.70;99.90;;;;;;5016612;28;20207;-60
2022/12/07 01:05:59;;;;;;;9.10;7.13;;;2.70;99.90;;;;;;5014314;28;20203;-59
2022/12/07 01:08:25;;;;;;;7.33;6.63;;;2.70;99.90;;;;;;5016914;28;20206;-60
2022/12/07 01:11:02;;;;;;;7.73;6.63;;;2.70;99.90;;;;;;5020464;28;20202;-64
2022/12/07 01:13:28;;;;;;;8.20;6.77;;;2.70;99.90;;;;;;5018205;28;20674;-62
2022/12/07 01:15:57;;;;;;;7.77;6.97;;;2.80;99.90;;;;;;5020279;28;20276;-64
2022/12/07 01:18:23;;;;;;;7.77;6.70;;;2.90;99.90;;;;;;5019676;28;20207;-57
2022/12/07 01:21:01;;;;;;;6.97;6.27;;;2.90;99.90;;;;;;5020084;28;20670;-58
2022/12/07 01:23:27;;;;;;;8.43;6.43;;;2.80;99.90;;;;;;5019208;28;20589;-57
2022/12/07 01:25:57;;;;;;;8.10;6.60;;;2.80;99.90;;;;;;5008372;28;20813;-58
2022/12/07 01:28:23;;;;;;;6.97;5.87;;;2.80;99.90;;;;;;5010610;28;20280;-58
2022/12/07 01:31:01;;;;;;;7.37;6.37;;;2.80;99.90;;;;;;5010058;28;20869;-58
2022/12/07 01:33:29;;;;;;;6.13;5.40;;;2.80;99.90;;;;;;5008923;28;21326;-58
2022/12/07 01:36:00;;;;;;;7.30;5.97;;;2.80;99.90;;;;;;5008723;28;20388;-57
2022/12/07 01:38:25;;;;;;;6.47;5.23;;;2.80;99.90;;;;;;5013557;28;20213;-57
2022/12/07 01:40:55;;;;;;;5.73;5.13;;;2.80;99.90;;;;;;5006497;28;20562;-58
2022/12/07 01:43:22;;;;;;;6.20;5.60;;;2.80;99.90;;;;;;5010092;28;20525;-58
2022/12/07 01:45:48;;;;;;;6.73;5.10;;;2.80;99.90;;;;;;5009907;28;20206;-58
2022/12/07 01:48:16;;;;;;;5.60;5.00;;;2.80;99.90;;;;;;5007980;28;20201;-57
2022/12/07 01:50:45;;;;;;;6.17;5.57;;;2.80;99.90;;;;;;5008537;28;20687;-58
2022/12/07 01:53:11;;;;;;;6.60;5.13;;;2.80;99.90;;;;;;5009183;28;20219;-58
2022/12/07 01:55:40;;;;;;;6.17;4.57;;;2.80;99.90;;;;;;5013124;28;20682;-58
2022/12/07 01:58:06;;;;;;;5.73;4.83;;;2.80;99.90;;;;;;5007254;28;20272;-58
2022/12/07 02:00:32;;;;;;;10.07;5.10;;;2.80;99.90;;;;;;5006339;28;20707;-58
2022/12/07 02:03:07;;;;;;;5.90;5.30;;;2.80;99.90;;;;;;5009352;28;20228;-59
2022/12/07 02:05:35;;;;;;;5.80;5.17;;;2.80;99.90;;;;;;5007580;28;20224;-60
2022/12/07 02:08:01;;;;;;;6.70;4.57;;;2.80;99.90;;;;;;5007715;28;20236;-58
2022/12/07 02:10:30;;;;;;;7.47;5.60;;;2.80;99.90;;;;;;5017509;28;20247;-57
2022/12/07 02:13:05;;;;;;;5.83;4.87;;;2.90;99.90;;;;;;5008731;28;20203;-58
2022/12/07 02:15:53;;;;;;;5.47;4.77;;;2.90;99.90;;;;;;5003065;28;20637;-58
2022/12/07 02:18:59;;;;;;;5.07;4.30;;;2.80;99.90;;;;;;4998351;28;20509;-58
2022/12/07 02:21:48;;;;;;;6.10;4.33;;;2.80;99.90;;;;;;5022710;28;20210;-58
2022/12/07 02:24:34;;;;;;;6.20;4.70;;;2.70;99.90;;;;;;5018773;28;20252;-56
2022/12/07 02:27:37;;;;;;;5.83;5.23;;;2.70;99.90;;;;;;5022105;28;20640;-57
2022/12/07 02:30:22;;;;;;;6.27;5.53;;;2.70;99.90;;;;;;5021494;28;20785;-57
2022/12/07 02:33:08;;;;;;;7.90;5.43;;;2.70;99.90;;;;;;5020607;28;20209;-57
2022/12/07 02:35:48;;;;;;;6.90;5.70;;;2.60;99.90;;;;;;5022487;28;20245;-57
2022/12/07 02:38:39;;;;;;;6.27;5.67;;;2.60;99.90;;;;;;5018940;28;20927;-57
2022/12/07 02:41:20;;;;;;;6.00;5.33;;;2.60;99.90;;;;;;5021607;28;20693;-57
2022/12/07 02:43:51;;;;;;;7.53;5.87;;;2.70;99.90;;;;;;5020779;28;20210;-58
2022/12/07 02:46:22;;;;;;;8.20;5.93;;;2.70;99.90;;;;;;5006549;28;20210;-58
2022/12/07 02:48:49;;;;;;;7.83;5.90;;;2.70;99.90;;;;;;5010534;28;20207;-57
2022/12/07 02:51:17;;;;;;;7.67;5.47;;;2.60;99.90;;;;;;5005127;28;20194;-57
2022/12/07 02:53:44;;;;;;;7.97;6.27;;;2.60;99.90;;;;;;5006369;28;20209;-58
2022/12/07 02:56:15;;;;;;;7.73;6.13;;;2.60;99.90;;;;;;5008656;28;20356;-57
2022/12/07 02:58:54;;;;;;;9.13;6.53;;;2.60;99.90;;;;;;5009242;28;20859;-57
2022/12/07 03:01:30;;;;;;;6.97;5.87;;;2.60;99.90;;;;;;5019662;28;20256;-58
2022/12/07 03:04:11;;;;;;;7.90;5.50;;;2.60;99.90;;;;;;5008039;28;20201;-59
2022/12/07 03:06:46;;;;;;;7.53;6.73;;;2.60;99.90;;;;;;5009392;28;20225;-59
2022/12/07 03:09:32;;;;;;;9.50;7.60;;;2.50;99.90;;;;;;5008193;28;20670;-59
2022/12/07 03:12:25;;;;;;;10.73;7.30;;;2.60;99.90;;;;;;5007569;28;20567;-61
2022/12/07 03:15:05;;;;;;;8.63;7.73;;;2.60;99.90;;;;;;5008125;28;20856;-65
2022/12/07 03:17:34;;;;;;;10.53;7.90;;;2.60;99.90;;;;;;5007049;28;20206;-63
2022/12/07 03:20:03;;;;;;;12.97;8.90;;;2.70;99.90;;;;;;5007995;28;20194;-60
2022/12/07 03:22:32;;;;;;;11.20;7.43;;;2.80;99.90;;;;;;5005847;28;20224;-58
2022/12/07 03:25:00;;;;;;;12.10;8.57;;;2.80;99.90;;;;;;5007628;28;20190;-58
2022/12/07 03:27:57;;;;;;;10.63;8.07;;;2.90;99.90;;;;;;5006156;28;20207;-60
2022/12/07 03:30:29;;;;;;;9.83;7.30;;;3.00;99.90;;;;;;5006443;28;20203;-60
2022/12/07 03:33:11;;;;;;;12.37;8.50;;;3.00;99.90;;;;;;5009535;28;20332;-59
2022/12/07 03:35:44;;;;;;;13.47;9.60;;;3.00;99.90;;;;;;5021675;28;20216;-59
2022/12/07 03:38:24;;;;;;;11.53;8.83;;;3.00;99.90;;;;;;5014619;28;20207;-59
2022/12/07 03:41:00;;;;;;;15.03;9.43;;;3.00;99.90;;;;;;5008311;28;20248;-59
2022/12/07 03:43:28;;;;;;;13.57;8.73;;;3.00;99.90;;;;;;5017353;28;20209;-59
2022/12/07 03:46:24;;;;;;;12.30;8.70;;;3.00;99.90;;;;;;5014642;28;20203;-59
2022/12/07 03:49:15;;;;;;;10.80;9.27;;;3.00;99.90;;;;;;5015189;28;20210;-60
2022/12/07 03:52:32;;;;;;;12.13;9.03;;;3.00;99.90;;;;;;5021659;28;20209;-60
2022/12/07 03:55:17;;;;;;;14.90;8.83;;;3.00;99.90;;;;;;4989850;28;20217;-59
2022/12/07 03:57:44;;;;;;;13.67;10.27;;;3.00;99.90;;;;;;4994514;28;20297;-61
2022/12/07 04:00:11;;;;;;;12.63;8.93;;;3.00;99.90;;;;;;5008381;28;20913;-59
2022/12/07 04:02:37;;;;;;;18.73;11.97;;;3.00;99.90;;;;;;5016629;28;20245;-60
2022/12/07 04:05:03;;;;;;;18.20;11.87;;;2.90;99.90;;;;;;5017331;28;20229;-59
2022/12/07 04:07:28;;;;;;;15.30;10.80;;;2.90;99.90;;;;;;5015223;28;20271;-60
2022/12/07 04:09:54;;;;;;;13.07;9.37;;;2.80;99.90;;;;;;5016834;28;20203;-59
2022/12/07 04:12:20;;;;;;;16.47;12.63;;;2.80;99.90;;;;;;5019728;28;20224;-60
2022/12/07 04:14:46;;;;;;;15.07;10.80;;;2.80;99.90;;;;;;5025387;28;20206;-58
2022/12/07 04:17:11;;;;;;;15.63;10.90;;;2.80;99.90;;;;;;5016891;28;20287;-59
2022/12/07 04:19:37;;;;;;;14.27;10.77;;;2.80;99.90;;;;;;5015769;28;20221;-60
2022/12/07 04:22:04;;;;;;;15.67;11.63;;;2.80;99.90;;;;;;5015972;28;20249;-58
2022/12/07 04:24:30;;;;;;;17.13;11.27;;;2.80;99.90;;;;;;5015358;28;20233;-59
2022/12/07 04:26:56;;;;;;;15.83;11.20;;;2.90;99.90;;;;;;5016541;28;20203;-58
2022/12/07 04:29:22;;;;;;;19.40;13.73;;;2.80;99.90;;;;;;5018135;28;20207;-59
2022/12/07 04:31:48;;;;;;;19.23;12.60;;;2.80;99.90;;;;;;5015396;28;20207;-59
2022/12/07 04:34:15;;;;;;;21.57;14.57;;;2.80;99.90;;;;;;5014783;28;20545;-60
2022/12/07 04:36:41;;;;;;;18.53;13.70;;;2.80;99.90;;;;;;5016708;28;20245;-59
2022/12/07 04:39:13;;;;;;;22.07;14.50;;;2.80;99.90;;;;;;5016555;28;20645;-59
2022/12/07 04:41:38;;;;;;;22.07;14.50;;;2.70;99.90;;;;;;5015339;28;20247;-60
2022/12/07 04:44:07;;;;;;;19.73;14.37;;;2.70;99.90;;;;;;5014201;28;20681;-61
2022/12/07 04:46:33;;;;;;;22.50;15.47;;;2.70;99.90;;;;;;5016445;28;20217;-59
2022/12/07 04:48:58;;;;;;;22.93;17.63;;;2.70;99.90;;;;;;5016300;28;20328;-59
2022/12/07 04:51:27;;;;;;;26.57;17.70;;;2.70;99.90;;;;;;5014936;28;20192;-59
2022/12/07 04:53:53;;;;;;;25.93;18.13;;;2.70;99.90;;;;;;5015998;28;20210;-59
2022/12/07 04:56:19;;;;;;;27.67;17.83;;;2.70;99.90;;;;;;5013910;28;20233;-59
2022/12/07 04:58:46;;;;;;;23.40;16.93;;;2.70;99.90;;;;;;5016009;28;20227;-59
2022/12/07 05:01:12;;;;;;;27.53;15.67;;;2.70;99.90;;;;;;5016135;28;20760;-59
2022/12/07 05:03:38;;;;;;;24.20;16.57;;;2.80;99.90;;;;;;5016473;28;20192;-59
2022/12/07 05:06:05;;;;;;;25.10;18.47;;;2.80;99.90;;;;;;5016050;28;20213;-59
2022/12/07 05:08:32;;;;;;;27.17;17.90;;;2.80;99.90;;;;;;5012445;28;20209;-59
2022/12/07 05:10:58;;;;;;;27.97;18.47;;;2.80;99.90;;;;;;5015913;28;20296;-59
2022/12/07 05:13:23;;;;;;;32.40;19.97;;;2.80;99.90;;;;;;5016063;28;20294;-59
2022/12/07 05:15:49;;;;;;;28.90;19.93;;;2.80;99.90;;;;;;5017669;28;20693;-59
2022/12/07 05:18:15;;;;;;;31.97;19.20;;;2.80;99.90;;;;;;5014022;28;20206;-59
2022/12/07 05:20:41;;;;;;;33.77;20.47;;;2.90;99.90;;;;;;5016243;28;20207;-58
2022/12/07 05:23:07;;;;;;;27.30;17.97;;;2.90;99.90;;;;;;5015055;28;20239;-58
2022/12/07 05:25:33;;;;;;;32.60;19.53;;;2.90;99.90;;;;;;5015976;28;20705;-58
2022/12/07 05:27:58;;;;;;;34.00;20.70;;;3.00;99.90;;;;;;5015948;28;20563;-58
2022/12/07 05:30:25;;;;;;;31.83;20.70;;;3.00;99.90;;;;;;5016051;28;20747;-58
2022/12/07 05:32:50;;;;;;;28.30;19.13;;;3.00;99.90;;;;;;5015514;28;21133;-58
2022/12/07 05:35:16;;;;;;;34.40;19.83;;;3.00;99.90;;;;;;5015006;28;20296;-58
2022/12/07 05:37:42;;;;;;;35.63;20.53;;;3.10;99.90;;;;;;5015536;28;20268;-59
2022/12/07 05:40:08;;;;;;;35.20;21.90;;;3.00;99.90;;;;;;5015474;28;20214;-59
2022/12/07 05:42:34;;;;;;;32.40;20.67;;;3.10;99.90;;;;;;5015646;28;20458;-59
2022/12/07 05:44:59;;;;;;;29.67;18.67;;;3.10;99.90;;;;;;5015539;28;20212;-59
2022/12/07 05:47:25;;;;;;;33.17;20.17;;;3.10;99.90;;;;;;5015755;28;20200;-59
2022/12/07 05:49:50;;;;;;;28.50;19.00;;;3.20;99.90;;;;;;5013452;28;20203;-59
2022/12/07 05:52:16;;;;;;;32.60;19.53;;;3.20;99.90;;;;;;5015770;28;20246;-61
2022/12/07 05:54:42;;;;;;;35.03;19.33;;;3.20;99.90;;;;;;5016556;28;20207;-61
2022/12/07 05:57:07;;;;;;;26.93;17.43;;;3.20;99.90;;;;;;5018803;28;20223;-60
2022/12/07 05:59:33;;;;;;;27.47;19.07;;;3.20;99.90;;;;;;5019008;28;20230;-60
2022/12/07 06:02:05;;;;;;;30.87;18.13;;;3.30;99.90;;;;;;5018920;28;20300;-60
2022/12/07 06:04:34;;;;;;;29.90;19.47;;;3.30;99.90;;;;;;5019078;28;20203;-60
2022/12/07 06:06:59;;;;;;;28.37;17.40;;;3.30;99.90;;;;;;5019145;28;20279;-60
2022/12/07 06:09:26;;;;;;;28.40;19.30;;;3.40;99.90;;;;;;5018612;28;20729;-60
2022/12/07 06:14:37;;;;;;;39.13;21.67;;;3.40;99.90;;;;;;5018349;28;20640;-60
2022/12/07 06:17:04;;;;;;;31.37;19.87;;;3.40;99.90;;;;;;5018659;28;20210;-60
2022/12/07 06:19:29;;;;;;;31.67;19.03;;;3.40;99.90;;;;;;5023103;28;20210;-60
2022/12/07 06:21:55;;;;;;;29.83;19.97;;;3.40;99.90;;;;;;5012003;28;20223;-60
2022/12/07 06:24:21;;;;;;;29.30;19.03;;;3.40;99.90;;;;;;5018662;28;20622;-60
2022/12/07 06:26:46;;;;;;;29.43;18.60;;;3.40;99.90;;;;;;5018494;28;20199;-59
2022/12/07 06:29:12;;;;;;;30.37;18.00;;;3.30;99.90;;;;;;5016933;28;20195;-59
2022/12/07 06:31:38;;;;;;;28.33;18.83;;;3.20;99.90;;;;;;5018301;28;20662;-59
2022/12/07 06:34:06;;;;;;;32.30;19.63;;;3.20;99.90;;;;;;5018897;28;20211;-59
2022/12/07 06:36:32;;;;;;;30.77;19.10;;;3.20;99.90;;;;;;5017387;28;20207;-59
2022/12/07 06:38:58;;;;;;;32.47;19.33;;;3.30;99.90;;;;;;5016494;28;20214;-59
2022/12/07 06:41:24;;;;;;;29.90;19.40;;;3.20;99.90;;;;;;5018236;28;20244;-59
2022/12/07 06:43:50;;;;;;;28.50;18.47;;;3.30;99.90;;;;;;5018515;28;20214;-59
2022/12/07 06:46:16;;;;;;;33.33;19.37;;;3.40;99.90;;;;;;5018708;28;20203;-60
2022/12/07 06:48:42;;;;;;;28.80;19.10;;;3.40;99.90;;;;;;5016431;28;20191;-60
2022/12/07 06:51:09;;;;;;;34.47;20.33;;;3.40;99.90;;;;;;5018093;28;20218;-59
2022/12/07 06:53:35;;;;;;;31.43;21.23;;;3.40;99.90;;;;;;5017892;28;20223;-59
2022/12/07 06:56:00;;;;;;;28.93;19.70;;;3.40;99.90;;;;;;5017883;28;20195;-60
2022/12/07 06:58:26;;;;;;;33.33;21.53;;;3.50;99.90;;;;;;5017879;28;20215;-60
2022/12/07 07:00:51;;;;;;;35.10;22.70;;;3.50;99.90;;;;;;5016802;28;20628;-61
2022/12/07 07:03:17;;;;;;;31.97;20.20;;;3.50;99.90;;;;;;5017390;28;20336;-60
2022/12/07 07:05:44;;;;;;;33.53;23.30;;;3.50;99.90;;;;;;5017631;28;20273;-61
2022/12/07 07:08:10;;;;;;;28.90;18.67;;;3.50;99.90;;;;;;5017889;28;20226;-61
2022/12/07 07:10:36;;;;;;;28.03;19.57;;;3.60;99.90;;;;;;5017793;28;20234;-59
2022/12/07 07:13:01;;;;;;;29.27;20.60;;;3.60;99.90;;;;;;5021965;28;20236;-59
2022/12/07 07:15:27;;;;;;;32.60;19.13;;;3.60;99.90;;;;;;5012421;28;20253;-58
2022/12/07 07:17:53;;;;;;;30.97;19.93;;;3.60;99.90;;;;;;5017665;28;20206;-58
2022/12/07 07:20:18;;;;;;;39.90;20.00;;;3.70;99.90;;;;;;5017941;28;20233;-58
2022/12/07 07:22:44;;;;;;;27.60;18.10;;;3.70;99.90;;;;;;5016587;28;20211;-58
2022/12/07 07:25:09;;;;;;;32.20;20.93;;;3.70;99.90;;;;;;5017967;28;20210;-58
2022/12/07 07:27:35;;;;;;;28.43;17.47;;;3.70;99.90;;;;;;5014591;28;20322;-59
2022/12/07 07:30:01;;;;;;;25.47;17.37;;;3.70;99.90;;;;;;5017713;28;20200;-58
2022/12/07 07:32:26;;;;;;;25.00;16.17;;;3.70;99.90;;;;;;5017682;28;20414;-57
2022/12/07 07:34:52;;;;;;;22.30;15.50;;;3.70;99.90;;;;;;5017525;28;20206;-58
2022/12/07 07:37:17;;;;;;;25.13;14.47;;;3.60;99.90;;;;;;5017579;28;20282;-59
2022/12/07 07:39:43;;;;;;;20.50;13.53;;;3.60;99.90;;;;;;5015941;28;20195;-58
2022/12/07 07:42:08;;;;;;;23.83;15.37;;;3.60;99.90;;;;;;5017621;28;20223;-58
2022/12/07 07:44:34;;;;;;;20.33;13.83;;;3.60;99.90;;;;;;5016342;28;20199;-59
2022/12/07 07:47:00;;;;;;;21.90;14.00;;;3.60;99.90;;;;;;5017035;28;20200;-59
2022/12/07 07:49:26;;;;;;;24.63;14.57;;;3.60;99.90;;;;;;5018517;28;20242;-60
2022/12/07 07:51:52;;;;;;;18.17;12.20;;;3.60;99.90;;;;;;5017264;28;20213;-59
2022/12/07 07:54:17;;;;;;;19.30;12.60;;;3.70;99.90;;;;;;5015408;28;20209;-60
2022/12/07 07:56:43;;;;;;;17.80;12.97;;;3.70;99.90;;;;;;5016894;28;20226;-59
2022/12/07 07:59:08;;;;;;;17.57;13.20;;;3.80;99.90;;;;;;5016884;28;20201;-59
2022/12/07 08:01:34;;;;;;;18.40;11.37;;;3.70;99.90;;;;;;5016909;28;20218;-59
2022/12/07 08:04:00;;;;;;;18.03;10.07;;;3.70;99.90;;;;;;5017152;28;20220;-60
2022/12/07 08:06:26;;;;;;;16.03;10.47;;;3.70;99.90;;;;;;5019225;28;20217;-60
2022/12/07 08:08:52;;;;;;;13.93;10.57;;;3.80;99.90;;;;;;5013451;28;20195;-59
2022/12/07 08:11:18;;;;;;;14.23;9.77;;;3.80;99.90;;;;;;5024410;28;20669;-59
2022/12/07 08:13:48;;;;;;;12.37;8.07;;;3.80;99.90;;;;;;5014863;28;20285;-59
2022/12/07 08:16:14;;;;;;;12.37;7.47;;;3.80;99.90;;;;;;5015511;28;20211;-58
2022/12/07 08:18:41;;;;;;;9.70;7.10;;;3.90;99.90;;;;;;5012897;28;20210;-59
2022/12/07 08:21:11;;;;;;;11.30;7.77;;;3.90;99.90;;;;;;5016077;28;20206;-59
2022/12/07 08:23:37;;;;;;;11.80;7.03;;;4.00;99.90;;;;;;5020568;28;20197;-59
2022/12/07 08:26:04;;;;;;;6.17;5.57;;;4.00;99.90;;;;;;5015036;28;20206;-59
2022/12/07 08:28:30;;;;;;;9.10;7.30;;;4.00;99.90;;;;;;5016031;28;20214;-59
2022/12/07 08:31:00;;;;;;;5.30;4.67;;;4.00;99.90;;;;;;5016239;28;20294;-59
2022/12/07 08:33:26;;;;;;;7.33;5.20;;;4.00;99.90;;;;;;5016124;28;20658;-59
2022/12/07 08:35:51;;;;;;;8.63;4.83;;;4.00;99.90;;;;;;5016663;28;20245;-58
2022/12/07 08:38:17;;;;;;;5.67;4.63;;;4.00;99.90;;;;;;5014857;28;20207;-59
2022/12/07 08:40:42;;;;;;;7.20;4.40;;;4.00;99.90;;;;;;5006666;28;20564;-59
2022/12/07 08:43:07;;;;;;;6.87;3.73;;;4.10;99.90;;;;;;5016458;28;20215;-58
2022/12/07 08:45:35;;;;;;;3.30;3.00;;;4.00;99.90;;;;;;5016249;28;20724;-58
2022/12/07 08:48:07;;;;;;;3.17;2.80;;;4.10;99.90;;;;;;5016028;28;20202;-58
2022/12/07 08:50:34;;;;;;;2.60;2.40;;;4.10;99.90;;;;;;5016048;28;20210;-58
2022/12/07 08:53:00;;;;;;;3.43;3.00;;;4.10;99.90;;;;;;5015936;28;20661;-58
2022/12/07 08:55:27;;;;;;;3.57;2.37;;;4.10;99.90;;;;;;5016198;28;20311;-58
2022/12/07 08:57:53;;;;;;;2.47;2.27;;;4.10;99.90;;;;;;5015794;28;20322;-59
2022/12/07 09:00:18;;;;;;;2.50;2.30;;;4.10;99.90;;;;;;5016118;28;20298;-59
2022/12/07 09:02:45;;;;;;;2.10;2.00;;;4.10;99.90;;;;;;5014330;28;20213;-59
2022/12/07 09:05:11;;;;;;;2.50;2.10;;;4.00;99.90;;;;;;5015705;28;20202;-59
2022/12/07 09:07:38;;;;;;;2.47;1.87;;;4.00;99.90;;;;;;5016630;28;20197;-59
2022/12/07 09:10:04;;;;;;;2.33;1.83;;;4.00;99.90;;;;;;5013174;28;20199;-59
2022/12/07 09:12:30;;;;;;;4.80;1.90;;;4.00;99.90;;;;;;5015883;28;20207;-59
2022/12/07 09:14:55;;;;;;;2.30;2.10;;;4.00;99.90;;;;;;5016312;28;20203;-59
2022/12/07 09:17:21;;;;;;;1.90;1.67;;;3.90;99.90;;;;;;5021013;28;20313;-60
2022/12/07 09:19:47;;;;;;;2.17;2.00;;;3.90;99.90;;;;;;5010566;28;20223;-60
2022/12/07 09:22:12;;;;;;;2.10;2.00;;;3.90;99.90;;;;;;5015110;28;20700;-60
2022/12/07 09:24:38;;;;;;;2.13;1.70;;;4.00;99.90;;;;;;5016990;28;20209;-60
2022/12/07 09:27:03;;;;;;;2.50;2.30;;;3.90;99.90;;;;;;5013329;28;20203;-60
2022/12/07 09:29:29;;;;;;;3.33;2.50;;;4.00;99.90;;;;;;5014292;28;20648;-60
2022/12/07 09:31:54;;;;;;;3.23;2.57;;;3.90;99.90;;;;;;5019194;28;20645;-59
2022/12/07 09:34:20;;;;;;;2.17;2.07;;;3.90;99.90;;;;;;5027433;28;20278;-58
2022/12/07 09:36:45;;;;;;;2.33;2.13;;;3.90;99.90;;;;;;5028606;28;20199;-59
2022/12/07 09:39:11;;;;;;;2.80;2.33;;;3.90;99.90;;;;;;5024690;28;20231;-59
2022/12/07 09:41:42;;;;;;;3.10;2.80;;;3.90;99.90;;;;;;5023616;28;20464;-59
2022/12/07 09:44:12;;;;;;;2.43;1.90;;;3.90;99.90;;;;;;5018530;28;20285;-59
2022/12/07 09:46:40;;;;;;;2.50;1.93;;;3.90;99.90;;;;;;5015978;28;20218;-59
2022/12/07 09:49:17;;;;;;;2.07;1.83;;;3.80;99.90;;;;;;5021242;28;21152;-60
2022/12/07 09:51:43;;;;;;;5.23;1.70;;;3.80;99.90;;;;;;5027449;28;20790;-60
2022/12/07 09:54:13;;;;;;;1.47;1.37;;;3.80;99.90;;;;;;5024593;28;20245;-61
2022/12/07 09:56:38;;;;;;;1.83;1.73;;;3.80;99.90;;;;;;5027169;28;20740;-62
2022/12/07 09:59:04;;;;;;;2.97;1.73;;;3.80;99.90;;;;;;5025649;28;20200;-60
2022/12/07 10:01:32;;;;;;;2.97;2.53;;;3.80;99.90;;;;;;5024320;28;20287;-61
2022/12/07 10:04:12;;;;;;;2.40;2.20;;;3.80;99.90;;;;;;5024053;28;20217;-61
2022/12/07 10:06:38;;;;;;;1.70;1.60;;;3.80;99.90;;;;;;5024882;28;20196;-61
2022/12/07 10:09:10;;;;;;;2.10;2.00;;;3.80;99.90;;;;;;5024465;28;20209;-62
2022/12/07 10:12:03;;;;;;;2.30;2.10;;;3.70;99.90;;;;;;5023040;28;20228;-63
2022/12/07 10:14:30;;;;;;;2.73;2.30;;;3.80;99.90;;;;;;5029093;28;20240;-63
2022/12/07 10:16:56;;;;;;;2.37;2.17;;;3.80;99.90;;;;;;5024209;28;20274;-63
2022/12/07 10:19:30;;;;;;;2.93;1.90;;;3.80;99.90;;;;;;5019818;28;20753;-62
2022/12/07 10:21:59;;;;;;;3.70;2.07;;;3.80;99.90;;;;;;5024159;28;20260;-65
2022/12/07 10:24:24;;;;;;;2.83;2.17;;;3.70;99.90;;;;;;5025386;28;20786;-64
2022/12/07 10:26:53;;;;;;;2.83;2.60;;;3.80;99.90;;;;;;5027171;28;20194;-64
2022/12/07 10:29:38;;;;;;;4.07;2.63;;;3.70;99.90;;;;;;5026037;28;20837;-61
2022/12/07 10:32:25;;;;;;;5.40;1.93;;;3.70;99.90;;;;;;5017267;28;20253;-71
2022/12/07 10:35:11;;;;;;;2.77;2.10;;;3.70;99.90;;;;;;5017651;28;20619;-68
2022/12/07 10:37:41;;;;;;;2.60;2.33;;;3.80;99.90;;;;;;5017514;28;20203;-61
2022/12/07 10:40:26;;;;;;;2.37;2.17;;;3.90;99.90;;;;;;5017537;28;20662;-69
2022/12/07 10:43:11;;;;;;;3.10;2.20;;;4.00;99.90;;;;;;5009784;28;20212;-66
2022/12/07 10:45:54;;;;;;;3.33;3.03;;;3.90;99.90;;;;;;5017822;28;20734;-62
2022/12/07 10:49:00;;;;;;;3.60;3.30;;;4.00;99.90;;;;;;5025339;28;20334;-62
2022/12/07 10:51:43;;;;;;;3.13;2.83;;;4.00;99.90;;;;;;5026855;28;20240;-67
2022/12/07 10:54:18;;;;;;;3.60;3.27;;;4.00;99.90;;;;;;5021968;28;20282;-62
2022/12/07 10:57:03;;;;;;;3.23;2.93;;;4.00;99.90;;;;;;5020438;28;20223;-61
2022/12/07 10:59:39;;;;;;;3.63;3.37;;;4.00;99.90;;;;;;5021621;28;20277;-61
2022/12/07 11:02:20;;;;;;;3.57;3.27;;;4.00;99.90;;;;;;5013708;28;20211;-60
2022/12/07 11:05:10;;;;;;;4.37;3.20;;;4.10;99.90;;;;;;5018107;28;20195;-60
2022/12/07 11:07:50;;;;;;;6.43;3.73;;;4.10;99.90;;;;;;5017900;28;20202;-60
2022/12/07 11:10:27;;;;;;;3.80;3.50;;;4.00;99.90;;;;;;5017435;28;20689;-60
2022/12/07 11:13:09;;;;;;;5.00;3.37;;;4.00;99.90;;;;;;5017906;28;20202;-62
2022/12/07 11:15:54;;;;;;;4.90;3.47;;;4.00;99.90;;;;;;5017622;28;20733;-61
2022/12/07 11:18:31;;;;;;;4.20;3.80;;;4.00;99.90;;;;;;5015770;28;20230;-60
2022/12/07 11:21:28;;;;;;;4.27;3.67;;;4.10;99.90;;;;;;5019191;28;21035;-61
2022/12/07 11:24:02;;;;;;;3.43;3.13;;;4.10;99.90;;;;;;5013696;28;20214;-64
2022/12/07 11:26:59;;;;;;;5.47;3.43;;;4.20;99.90;;;;;;5012171;28;20247;-60
2022/12/07 11:29:43;;;;;;;4.27;3.60;;;4.20;99.90;;;;;;5016998;28;20204;-61
2022/12/07 11:32:32;;;;;;;4.10;3.10;;;4.20;99.90;;;;;;5020257;28;20198;-64
2022/12/07 11:35:45;;;;;;;3.57;3.27;;;4.30;99.90;;;;;;5016187;28;20257;-63
2022/12/07 11:38:26;;;;;;;5.23;3.73;;;4.30;99.90;;;;;;5015940;28;20341;-63
2022/12/07 11:41:12;;;;;;;3.80;3.50;;;4.30;99.90;;;;;;5015156;28;20207;-69
2022/12/07 11:43:54;;;;;;;4.53;4.13;;;4.40;99.90;;;;;;5017330;28;20465;-62
2022/12/07 11:46:24;;;;;;;4.63;4.23;;;4.40;99.90;;;;;;5017105;28;20211;-68
2022/12/07 11:49:28;;;;;;;4.30;3.33;;;4.50;99.90;;;;;;5017222;28;20192;-66
2022/12/07 11:51:58;;;;;;;6.53;3.97;;;4.50;99.90;;;;;;4992087;28;20578;-63
2022/12/07 11:54:29;;;;;;;5.83;3.90;;;4.40;99.90;;;;;;4988746;28;20215;-62
2022/12/07 11:57:00;;;;;;;3.90;3.57;;;4.40;99.90;;;;;;4999230;28;20243;-61
2022/12/07 11:59:38;;;;;;;2.97;2.53;;;4.50;99.90;;;;;;5016965;28;20308;-63
2022/12/07 12:02:14;;;;;;;3.83;3.17;;;4.50;99.90;;;;;;5018970;28;20215;-69
2022/12/07 12:05:12;;;;;;;4.93;3.43;;;4.50;99.90;;;;;;5013230;28;20199;-67
2022/12/07 12:07:39;;;;;;;5.40;4.17;;;4.50;99.90;;;;;;5007147;28;20208;-71
2022/12/07 12:10:18;;;;;;;4.97;3.30;;;4.60;99.90;;;;;;5016092;28;20534;-66
2022/12/07 12:12:55;;;;;;;5.27;3.60;;;4.60;99.90;;;;;;5013087;28;20200;-69
2022/12/07 12:15:57;;;;;;;4.87;3.10;;;4.70;99.90;;;;;;5017540;28;20285;-59
2022/12/07 12:19:15;;;;;;;4.30;3.10;;;4.80;99.90;;;;;;5010693;28;20578;-57
2022/12/07 12:21:42;;;;;;;4.90;3.80;;;4.90;99.90;;;;;;5007783;28;20249;-57
2022/12/07 12:24:17;;;;;;;4.93;2.63;;;5.10;99.90;;;;;;5016109;28;20671;-56
2022/12/07 12:26:51;;;;;;;6.30;4.10;;;5.10;99.90;;;;;;5014700;28;20564;-58
2022/12/07 12:29:28;;;;;;;4.10;2.27;;;5.10;99.90;;;;;;5015980;28;20211;-57
2022/12/07 12:32:12;;;;;;;2.47;1.90;;;5.10;99.90;;;;;;5017148;28;20204;-57
2022/12/07 12:34:59;;;;;;;5.03;3.10;;;5.10;99.90;;;;;;5009760;28;20199;-57
2022/12/07 12:37:33;;;;;;;6.93;2.70;;;5.20;99.90;;;;;;5015589;28;20214;-57
2022/12/07 12:40:14;;;;;;;6.63;2.70;;;5.20;99.90;;;;;;5020560;28;20265;-58
2022/12/07 12:42:53;;;;;;;2.87;2.07;;;5.10;99.90;;;;;;5023051;28;20221;-58
2022/12/07 12:45:27;;;;;;;5.93;2.03;;;5.00;99.90;;;;;;5022819;28;20292;-58
2022/12/07 12:48:00;;;;;;;5.43;2.10;;;5.10;99.90;;;;;;5024039;28;20281;-57
2022/12/07 12:50:37;;;;;;;6.60;2.67;;;5.10;99.90;;;;;;5024842;28;20547;-59
2022/12/07 12:53:17;;;;;;;7.73;2.50;;;5.10;99.90;;;;;;5022554;28;20202;-59
2022/12/07 12:55:42;;;;;;;6.67;2.20;;;5.10;99.90;;;;;;5021598;28;20689;-58
2022/12/07 12:58:20;;;;;;;4.23;2.33;;;5.20;99.90;;;;;;5021561;28;20214;-57
2022/12/07 13:01:26;;;;;;;3.70;2.37;;;5.20;99.90;;;;;;5019502;28;20218;-56
2022/12/07 13:03:54;;;;;;;4.80;2.57;;;5.30;99.90;;;;;;5026382;28;20677;-57
2022/12/07 13:06:31;;;;;;;4.40;2.10;;;5.30;99.90;;;;;;5032409;28;20199;-57
2022/12/07 13:08:59;;;;;;;3.10;2.80;;;5.30;99.90;;;;;;5023109;28;20211;-58
2022/12/07 13:11:34;;;;;;;3.37;2.67;;;5.30;99.90;;;;;;5022038;28;20225;-58
2022/12/07 13:14:36;;;;;;;6.90;2.20;;;5.30;99.90;;;;;;5022297;28;20201;-58
2022/12/07 13:17:02;;;;;;;6.80;2.10;;;5.20;99.90;;;;;;5019519;28;20202;-58